Time;durP1;ratioP1;P1;durP2;ratioP2;P2;SDS_P1;SDS_P2;PMS_P1;PMS_P2;Temp;Humidity;BMP_temperature;BMP_pressure;BME280_temperature;BME280_humidity;BME280_pressure;Samples;Min_cycle;Max_cycle;Signal;HPM_P1;HPM_P2
2023/09/02 00:00:26;;;;;;;0.70;0.60;;;;;;;11.89;100.00;99430.30;110292;1272;100541;-55
2023/09/02 00:03:14;;;;;;;2.10;0.80;;;;;;;11.90;100.00;99427.45;110375;1274;22489;-55
2023/09/02 00:05:44;;;;;;;0.80;0.60;;;;;;;11.90;100.00;99427.93;110269;1271;99985;-55
2023/09/02 00:08:12;;;;;;;1.00;0.70;;;;;;;11.89;100.00;99431.33;110371;1273;22250;-55
2023/09/02 00:10:41;;;;;;;1.40;0.80;;;;;;;11.90;100.00;99435.29;110354;1271;22274;-55
2023/09/02 00:13:09;;;;;;;1.80;0.90;;;;;;;11.90;100.00;99431.46;110278;1271;99462;-55
2023/09/02 00:15:38;;;;;;;0.90;0.60;;;;;;;11.90;100.00;99435.66;110376;1270;22161;-55
2023/09/02 00:18:06;;;;;;;1.50;0.50;;;;;;;11.92;100.00;99439.33;110336;1272;102174;-55
2023/09/02 00:20:35;;;;;;;1.40;0.60;;;;;;;11.93;100.00;99436.14;110412;1274;22253;-55
2023/09/02 00:23:04;;;;;;;1.20;0.80;;;;;;;11.94;100.00;99437.31;110357;1275;22369;-55
2023/09/02 00:25:32;;;;;;;0.60;0.60;;;;;;;11.94;100.00;99442.02;110202;1270;99741;-55
2023/09/02 00:28:00;;;;;;;0.80;0.60;;;;;;;11.92;100.00;99444.09;110387;1272;22057;-55
2023/09/02 00:30:29;;;;;;;1.30;0.50;;;;;;;11.92;100.00;99447.70;110285;1272;99481;-55
2023/09/02 00:32:57;;;;;;;1.70;0.90;;;;;;;11.91;100.00;99444.46;110408;1273;22137;-55
2023/09/02 00:35:26;;;;;;;1.60;1.00;;;;;;;11.91;100.00;99443.58;110312;1275;99451;-55
2023/09/02 00:37:55;;;;;;;1.30;0.70;;;;;;;11.91;100.00;99441.68;110431;1270;22310;-55
2023/09/02 00:40:27;;;;;;;1.20;1.00;;;;;;;11.92;100.00;99443.36;110404;1271;22138;-55
2023/09/02 00:42:59;;;;;;;0.80;0.60;;;;;;;11.91;100.00;99442.38;110263;1271;99905;-55
2023/09/02 00:45:27;;;;;;;0.60;0.50;;;;;;;11.87;100.00;99441.20;110429;1271;22328;-55
2023/09/02 00:47:59;;;;;;;2.70;0.80;;;;;;;11.84;100.00;99445.33;110300;1271;99507;-55
2023/09/02 00:50:28;;;;;;;0.90;0.50;;;;;;;11.85;100.00;99445.11;110373;1272;22371;-53
2023/09/02 00:52:57;;;;;;;1.70;1.10;;;;;;;11.85;100.00;99449.63;110371;1271;22377;-53
2023/09/02 00:55:26;;;;;;;0.80;0.60;;;;;;;11.87;100.00;99448.88;110308;1270;99418;-54
2023/09/02 00:57:56;;;;;;;2.40;0.70;;;;;;;11.85;100.00;99450.52;110397;1270;22390;-54
2023/09/02 01:00:25;;;;;;;1.10;0.80;;;;;;;11.83;100.00;99449.41;110175;1272;100435;-53
2023/09/02 01:02:53;;;;;;;1.10;0.90;;;;;;;11.80;100.00;99450.61;110366;1270;22297;-52
2023/09/02 01:05:22;;;;;;;1.40;0.60;;;;;;;11.81;100.00;99452.13;110341;1270;99920;-53
2023/09/02 01:07:52;;;;;;;1.10;0.70;;;;;;;11.81;100.00;99448.48;110268;1270;22284;-53
2023/09/02 01:10:21;;;;;;;1.80;0.90;;;;;;;11.80;100.00;99446.27;110422;1270;23157;-53
2023/09/02 01:12:51;;;;;;;1.30;0.70;;;;;;;11.78;100.00;99452.81;110198;1273;99773;-54
2023/09/02 01:15:19;;;;;;;1.20;0.90;;;;;;;11.75;100.00;99451.40;110412;1270;22290;-54
2023/09/02 01:17:48;;;;;;;1.60;0.50;;;;;;;11.75;100.00;99451.94;110175;1270;100143;-53
2023/09/02 01:20:19;;;;;;;1.80;0.50;;;;;;;11.77;100.00;99453.56;110406;1270;22999;-54
2023/09/02 01:23:15;;;;;;;0.60;0.50;;;;;;;11.76;100.00;99456.45;110433;1270;22100;-54
2023/09/02 01:26:22;;;;;;;0.50;0.40;;;;;;;11.74;100.00;99457.91;110401;1270;22338;-54
2023/09/02 01:28:55;;;;;;;1.80;0.70;;;;;;;11.73;100.00;99458.48;110390;1275;23084;-54
2023/09/02 01:31:24;;;;;;;1.20;0.90;;;;;;;11.72;100.00;99455.78;110174;1270;101144;-55
2023/09/02 01:33:54;;;;;;;1.30;0.70;;;;;;;11.73;100.00;99457.27;110435;1270;22327;-54
2023/09/02 01:36:26;;;;;;;1.80;0.80;;;;;;;11.72;100.00;99457.14;110161;1270;99511;-54
2023/09/02 01:38:56;;;;;;;1.40;0.70;;;;;;;11.73;100.00;99456.73;110280;1270;23291;-54
2023/09/02 01:41:28;;;;;;;1.00;0.60;;;;;;;11.74;100.00;99457.73;110333;1271;100128;-53
2023/09/02 01:43:58;;;;;;;1.30;0.80;;;;;;;11.77;100.00;99453.77;110374;1271;23543;-53
2023/09/02 01:46:26;;;;;;;1.20;0.60;;;;;;;11.80;100.00;99458.29;110426;1270;22408;-54
2023/09/02 01:49:07;;;;;;;4.50;0.80;;;;;;;11.79;100.00;99454.32;110338;1270;99367;-54
2023/09/02 01:51:36;;;;;;;1.20;0.70;;;;;;;11.78;100.00;99463.11;110432;1270;22296;-52
2023/09/02 01:54:05;;;;;;;1.30;0.80;;;;;;;11.78;100.00;99465.54;110222;1270;100193;-53
2023/09/02 01:56:34;;;;;;;1.90;0.80;;;;;;;11.80;100.00;99463.88;110403;1275;22427;-54
2023/09/02 01:59:03;;;;;;;1.50;1.00;;;;;;;11.81;100.00;99464.84;110242;1273;22374;-53
2023/09/02 02:01:34;;;;;;;1.30;0.70;;;;;;;11.81;100.00;99464.52;110344;1270;100374;-53
2023/09/02 02:04:29;;;;;;;2.00;1.10;;;;;;;11.80;100.00;99461.59;110392;1260;22369;-53
2023/09/02 02:07:02;;;;;;;1.10;0.90;;;;;;;11.78;100.00;99462.06;110349;1270;99347;-52
2023/09/02 02:09:39;;;;;;;3.50;1.20;;;;;;;11.77;100.00;99464.36;110202;1273;23150;-53
2023/09/02 02:12:08;;;;;;;1.10;0.70;;;;;;;11.75;100.00;99459.25;110352;1270;99281;-52
2023/09/02 02:14:36;;;;;;;1.40;0.80;;;;;;;11.73;100.00;99458.48;110400;1270;22828;-53
2023/09/02 02:17:06;;;;;;;1.00;0.90;;;;;;;11.74;100.00;99460.23;110439;1270;22272;-52
2023/09/02 02:19:35;;;;;;;1.30;0.80;;;;;;;11.74;100.00;99462.64;110337;1270;99926;-53
2023/09/02 02:22:04;;;;;;;1.40;0.80;;;;;;;11.74;100.00;99465.24;110392;1270;22294;-52
2023/09/02 02:24:34;;;;;;;0.70;0.60;;;;;;;11.73;100.00;99465.30;110325;1270;99923;-53
2023/09/02 02:27:03;;;;;;;1.70;0.70;;;;;;;11.73;100.00;99459.39;110390;1270;22346;-53
2023/09/02 02:29:31;;;;;;;2.10;1.00;;;;;;;11.73;100.00;99459.52;110339;1270;99438;-54
2023/09/02 02:32:00;;;;;;;0.80;0.60;;;;;;;11.74;100.00;99464.58;110432;1270;22335;-53
2023/09/02 02:34:28;;;;;;;1.10;0.80;;;;;;;11.75;100.00;99466.07;110444;1270;22301;-54
2023/09/02 02:36:57;;;;;;;1.20;0.80;;;;;;;11.74;100.00;99463.48;110373;1270;99331;-53
2023/09/02 02:39:26;;;;;;;1.10;0.70;;;;;;;11.74;100.00;99465.27;110456;1267;22288;-54
2023/09/02 02:41:54;;;;;;;5.30;1.30;;;;;;;11.72;100.00;99466.91;110359;1270;100103;-53
2023/09/02 02:44:23;;;;;;;0.80;0.60;;;;;;;11.72;100.00;99466.05;110437;1269;22453;-53
2023/09/02 02:46:51;;;;;;;1.30;0.80;;;;;;;11.71;100.00;99470.81;110433;1273;22266;-54
2023/09/02 02:49:19;;;;;;;1.00;0.80;;;;;;;11.70;100.00;99473.34;110359;1270;99298;-54
2023/09/02 02:51:48;;;;;;;1.40;0.70;;;;;;;11.72;100.00;99474.05;110411;1270;22327;-53
2023/09/02 02:54:17;;;;;;;1.30;0.80;;;;;;;11.73;100.00;99474.38;110162;1265;99417;-54
2023/09/02 02:56:46;;;;;;;1.30;0.90;;;;;;;11.74;100.00;99475.38;110280;1272;23384;-53
2023/09/02 02:59:17;;;;;;;1.80;1.10;;;;;;;11.78;100.00;99471.50;110240;1272;22288;-52
2023/09/02 03:01:46;;;;;;;1.30;0.80;;;;;;;11.79;100.00;99472.29;110293;1272;22132;-53
2023/09/02 03:04:15;;;;;;;1.80;0.80;;;;;;;11.79;100.00;99471.77;110355;1272;22872;-53
2023/09/02 03:06:44;;;;;;;3.00;1.10;;;;;;;11.78;100.00;99470.45;110253;1267;99301;-53
2023/09/02 03:09:12;;;;;;;1.60;0.90;;;;;;;11.76;100.00;99471.58;110319;1272;22289;-53
2023/09/02 03:11:41;;;;;;;1.50;0.80;;;;;;;11.75;100.00;99474.46;110256;1273;99420;-53
2023/09/02 03:14:09;;;;;;;1.60;1.00;;;;;;;11.75;100.00;99473.37;110273;1269;22130;-54
2023/09/02 03:16:38;;;;;;;3.00;1.60;;;;;;;11.76;100.00;99470.02;110235;1272;22142;-53
2023/09/02 03:19:06;;;;;;;2.50;1.00;;;;;;;11.77;100.00;99473.11;110202;1273;99627;-53
2023/09/02 03:21:35;;;;;;;4.30;1.70;;;;;;;11.77;100.00;99476.24;110325;1273;22298;-52
2023/09/02 03:24:04;;;;;;;1.40;0.80;;;;;;;11.78;100.00;99479.46;110146;1272;99578;-53
2023/09/02 03:26:33;;;;;;;1.30;1.00;;;;;;;11.79;100.00;99482.91;110331;1272;22168;-53
2023/09/02 03:29:01;;;;;;;2.80;0.90;;;;;;;11.80;100.00;99484.80;110222;1272;22330;-52
2023/09/02 03:31:30;;;;;;;3.30;1.20;;;;;;;11.81;100.00;99487.89;110188;1272;99499;-52
2023/09/02 03:33:58;;;;;;;1.10;0.90;;;;;;;11.81;100.00;99485.79;110341;1272;22121;-54
2023/09/02 03:36:27;;;;;;;2.20;1.10;;;;;;;11.85;100.00;99488.91;110221;1272;99831;-53
2023/09/02 03:38:55;;;;;;;1.20;1.10;;;;;;;11.87;100.00;99490.73;110360;1272;22035;-53
2023/09/02 03:41:24;;;;;;;1.20;1.00;;;;;;;11.86;100.00;99492.32;110273;1272;99980;-53
2023/09/02 03:43:52;;;;;;;2.10;1.20;;;;;;;11.88;100.00;99493.11;110229;1273;22168;-53
2023/09/02 03:46:22;;;;;;;2.90;1.30;;;;;;;11.89;100.00;99492.91;110314;1272;22261;-53
2023/09/02 03:48:51;;;;;;;2.30;1.00;;;;;;;11.91;100.00;99491.03;110246;1271;99855;-52
2023/09/02 03:51:19;;;;;;;1.10;1.00;;;;;;;11.93;100.00;99486.57;110329;1271;23494;-53
2023/09/02 03:53:48;;;;;;;1.70;0.90;;;;;;;11.95;100.00;99488.20;110160;1273;99707;-52
2023/09/02 03:56:16;;;;;;;1.30;1.00;;;;;;;11.96;100.00;99491.27;110344;1256;22295;-53
2023/09/02 03:58:45;;;;;;;2.10;1.20;;;;;;;11.97;100.00;99492.58;110404;1270;22890;-53
2023/09/02 04:01:14;;;;;;;1.00;0.90;;;;;;;12.00;100.00;99493.51;110127;1270;100389;-53
2023/09/02 04:03:43;;;;;;;2.50;1.10;;;;;;;12.02;100.00;99497.90;110210;1270;22292;-53
2023/09/02 04:06:12;;;;;;;4.00;1.00;;;;;;;12.03;100.00;99499.04;110333;1270;99747;-54
2023/09/02 04:08:40;;;;;;;1.90;1.10;;;;;;;12.05;100.00;99500.15;110396;1270;22566;-54
2023/09/02 04:11:09;;;;;;;1.80;1.20;;;;;;;12.07;100.00;99502.30;110199;1272;22328;-51
2023/09/02 04:13:37;;;;;;;3.90;1.30;;;;;;;12.10;100.00;99507.41;110322;1270;100435;-55
2023/09/02 04:16:08;;;;;;;1.40;1.20;;;;;;;12.11;100.00;99508.38;110440;1270;22347;-54
2023/09/02 04:18:37;;;;;;;2.20;1.20;;;;;;;12.16;100.00;99510.88;110352;1270;99820;-54
2023/09/02 04:21:09;;;;;;;1.30;1.00;;;;;;;12.24;100.00;99517.93;110197;1270;22424;-54
2023/09/02 04:23:37;;;;;;;1.60;1.10;;;;;;;12.36;100.00;99516.20;110320;1270;100090;-54
2023/09/02 04:26:06;;;;;;;1.60;1.20;;;;;;;12.46;100.00;99515.61;110200;1270;25431;-53
2023/09/02 04:28:35;;;;;;;1.60;1.40;;;;;;;12.58;100.00;99515.77;110407;1272;22283;-55
2023/09/02 04:31:04;;;;;;;1.40;1.10;;;;;;;12.67;100.00;99521.86;110148;1272;99853;-54
2023/09/02 04:33:33;;;;;;;1.60;1.40;;;;;;;12.77;100.00;99518.50;110447;1270;22350;-54
2023/09/02 04:36:02;;;;;;;2.50;1.60;;;;;;;12.85;100.00;99525.39;110138;1263;99395;-55
2023/09/02 04:38:33;;;;;;;1.60;1.50;;;;;;;12.88;100.00;99523.77;110161;1274;22310;-54
2023/09/02 04:41:06;;;;;;;3.90;1.60;;;;;;;12.96;100.00;99525.04;110144;1270;22352;-54
2023/09/02 04:43:35;;;;;;;3.00;1.70;;;;;;;13.03;100.00;99527.41;110374;1270;99230;-52
2023/09/02 04:46:08;;;;;;;1.40;0.90;;;;;;;12.97;100.00;99530.41;110305;1270;22213;-54
2023/09/02 04:48:37;;;;;;;2.60;1.60;;;;;;;13.00;100.00;99534.93;110075;1262;99672;-54
2023/09/02 04:51:07;;;;;;;5.20;1.40;;;;;;;13.09;100.00;99536.86;110440;1271;22313;-54
2023/09/02 04:53:36;;;;;;;1.80;1.60;;;;;;;13.20;100.00;99539.67;110358;1270;100005;-55
2023/09/02 04:56:05;;;;;;;4.20;1.70;;;;;;;13.36;100.00;99546.94;110410;1271;22268;-55
2023/09/02 04:58:34;;;;;;;3.60;1.90;;;;;;;13.43;100.00;99548.80;110240;1272;22147;-55
2023/09/02 05:01:10;;;;;;;2.70;1.80;;;;;;;13.53;100.00;99550.42;110228;1268;99569;-54
2023/09/02 05:03:39;;;;;;;2.60;1.70;;;;;;;13.59;100.00;99551.26;110311;1271;22408;-54
2023/09/02 05:06:10;;;;;;;3.80;2.10;;;;;;;13.64;100.00;99550.23;110120;1272;99500;-54
2023/09/02 05:08:39;;;;;;;1.90;1.20;;;;;;;13.71;100.00;99555.83;110279;1271;22152;-54
2023/09/02 05:11:08;;;;;;;1.40;1.10;;;;;;;13.79;100.00;99559.83;110301;1257;23043;-55
2023/09/02 05:13:36;;;;;;;4.30;1.80;;;;;;;14.02;100.00;99567.11;110204;1272;99318;-54
2023/09/02 05:16:05;;;;;;;3.10;1.90;;;;;;;14.07;100.00;99570.64;110299;1271;22222;-54
2023/09/02 05:18:33;;;;;;;3.40;1.90;;;;;;;14.16;100.00;99571.68;110255;1272;99874;-53
2023/09/02 05:21:02;;;;;;;2.70;2.30;;;;;;;14.29;100.00;99576.60;110167;1272;22354;-54
2023/09/02 05:23:32;;;;;;;2.20;2.00;;;;;;;14.34;100.00;99579.08;110198;1272;100895;-54
2023/09/02 05:26:01;;;;;;;2.20;1.90;;;;;;;14.38;100.00;99577.41;110299;1265;22135;-54
2023/09/02 05:28:29;;;;;;;3.10;1.90;;;;;;;14.39;100.00;99583.48;110254;1274;22310;-54
2023/09/02 05:30:58;;;;;;;3.30;1.50;;;;;;;14.52;100.00;99586.11;110207;1267;99851;-55
2023/09/02 05:33:26;;;;;;;1.80;1.20;;;;;;;14.64;100.00;99584.67;110258;1271;22334;-55
2023/09/02 05:35:55;;;;;;;2.20;1.90;;;;;;;14.70;100.00;99585.65;110138;1272;100072;-54
2023/09/02 05:38:24;;;;;;;2.20;1.60;;;;;;;14.66;100.00;99591.05;110180;1272;22235;-54
2023/09/02 05:40:52;;;;;;;3.50;1.70;;;;;;;14.75;100.00;99591.80;110315;1270;23327;-55
2023/09/02 05:43:24;;;;;;;2.30;1.70;;;;;;;14.83;100.00;99588.98;110249;1272;99860;-54
2023/09/02 05:45:53;;;;;;;2.40;1.90;;;;;;;14.81;100.00;99593.88;110334;1271;22157;-55
2023/09/02 05:48:21;;;;;;;4.00;1.90;;;;;;;14.85;100.00;99595.55;110242;1271;99425;-52
2023/09/02 05:50:50;;;;;;;2.60;1.90;;;;;;;14.89;100.00;99600.48;110280;1270;23193;-54
2023/09/02 05:53:19;;;;;;;2.20;1.90;;;;;;;14.90;100.00;99603.57;110319;1267;22955;-54
2023/09/02 05:55:55;;;;;;;2.40;2.10;;;;;;;14.96;100.00;99602.70;110236;1271;22092;-55
2023/09/02 05:58:27;;;;;;;5.80;2.80;;;;;;;15.06;100.00;99602.92;110185;1272;22479;-54
2023/09/02 06:00:58;;;;;;;2.10;1.70;;;;;;;15.18;100.00;99607.47;110218;1271;101214;-52
2023/09/02 06:03:27;;;;;;;2.50;1.60;;;;;;;15.28;100.00;99612.94;110310;1271;22302;-53
2023/09/02 06:05:57;;;;;;;2.20;1.90;;;;;;;15.35;100.00;99613.34;109846;1271;439246;-54
2023/09/02 06:08:27;;;;;;;2.20;1.90;;;;;;;15.40;100.00;99616.14;110339;1271;22773;-56
2023/09/02 06:11:00;;;;;;;3.50;2.70;;;;;;;15.55;100.00;99613.02;110291;1260;22293;-53
2023/09/02 06:13:29;;;;;;;1.90;1.20;;;;;;;15.67;100.00;99617.47;110254;1265;99010;-55
2023/09/02 06:16:03;;;;;;;2.10;1.80;;;;;;;15.89;100.00;99619.48;110133;1272;22250;-56
2023/09/02 06:18:34;;;;;;;3.60;2.10;;;;;;;16.05;100.00;99614.30;110054;1271;99513;-54
2023/09/02 06:21:13;;;;;;;3.30;1.70;;;;;;;16.04;100.00;99620.44;110330;1271;23250;-55
2023/09/02 06:23:43;;;;;;;2.10;1.20;;;;;;;16.13;100.00;99621.95;110062;1272;99386;-56
2023/09/02 06:26:12;;;;;;;2.10;1.70;;;;;;;16.31;100.00;99618.34;110329;1268;22286;-52
2023/09/02 06:28:45;;;;;;;5.40;1.80;;;;;;;16.34;100.00;99624.62;110168;1274;22099;-54
2023/09/02 06:31:14;;;;;;;2.60;1.70;;;;;;;16.34;100.00;99622.17;110088;1271;99882;-54
2023/09/02 06:34:09;;;;;;;2.90;2.00;;;;;;;16.35;100.00;99624.92;110173;1272;23064;-56
2023/09/02 06:36:47;;;;;;;2.30;1.30;;;;;;;16.52;100.00;99625.27;110068;1272;99752;-52
2023/09/02 06:39:17;;;;;;;4.10;1.90;;;;;;;16.77;100.00;99626.58;110310;1273;22302;-51
2023/09/02 06:41:46;;;;;;;3.60;1.80;;;;;;;17.07;100.00;99630.85;110035;1274;99401;-55
2023/09/02 06:44:47;;;;;;;2.00;1.30;;;;;;;17.35;100.00;99628.75;110211;1272;23226;-56
2023/09/02 06:47:17;;;;;;;3.10;1.70;;;;;;;17.72;100.00;99629.07;110150;1272;22912;-55
2023/09/02 06:49:54;;;;;;;2.40;1.30;;;;;;;17.94;100.00;99633.45;110081;1272;99123;-55
2023/09/02 06:52:31;;;;;;;2.80;1.40;;;;;;;18.05;100.00;99631.93;110224;1273;22266;-56
2023/09/02 06:55:06;;;;;;;2.50;1.30;;;;;;;18.12;100.00;99636.30;110136;1272;99745;-56
2023/09/02 06:57:38;;;;;;;1.70;1.10;;;;;;;18.24;100.00;99640.95;110124;1274;23239;-54
2023/09/02 07:00:08;;;;;;;3.00;1.30;;;;;;;18.35;100.00;99639.73;109967;1272;100174;-53
2023/09/02 07:02:44;;;;;;;1.80;1.20;;;;;;;18.31;100.00;99644.61;110077;1272;22063;-55
2023/09/02 07:05:13;;;;;;;2.60;1.30;;;;;;;18.43;100.00;99649.33;110149;1272;22283;-55
2023/09/02 07:08:03;;;;;;;1.90;1.20;;;;;;;18.56;100.00;99651.89;110014;1272;99117;-55
2023/09/02 07:10:39;;;;;;;2.30;1.20;;;;;;;18.92;100.00;99654.29;110171;1272;22254;-57
2023/09/02 07:13:08;;;;;;;1.70;0.80;;;;;;;19.18;100.00;99661.15;110090;1272;99524;-56
2023/09/02 07:15:46;;;;;;;1.50;0.90;;;;;;;19.51;100.00;99664.55;110128;1271;22145;-53
2023/09/02 07:18:24;;;;;;;1.50;0.80;;;;;;;19.65;100.00;99668.48;110051;1273;99318;-52
2023/09/02 07:21:33;;;;;;;2.00;1.00;;;;;;;19.91;100.00;99675.22;110295;1271;22319;-52
2023/09/02 07:24:10;;;;;;;1.70;0.90;;;;;;;20.04;100.00;99671.42;110240;1271;99516;-51
2023/09/02 07:27:13;;;;;;;1.20;0.70;;;;;;;19.97;100.00;99675.11;110320;1271;22349;-54
2023/09/02 07:30:39;;;;;;;1.60;0.80;;;;;;;20.20;100.00;99676.43;110097;1271;98943;-55
2023/09/02 07:34:20;;;;;;;1.10;0.60;;;;;;;20.28;100.00;99681.38;110144;1272;23160;-56
2023/09/02 07:36:49;;;;;;;1.00;0.60;;;;;;;20.42;100.00;99685.11;109754;1280;99962;-55
2023/09/02 07:39:19;;;;;;;1.30;0.60;;;;;;;20.66;100.00;99691.93;109751;1280;22291;-55
2023/09/02 07:41:48;;;;;;;1.90;0.80;;;;;;;21.13;100.00;99690.17;109756;1280;99537;-55
2023/09/02 07:44:17;;;;;;;2.20;1.10;;;;;;;21.45;100.00;99695.08;109792;1281;22177;-55
2023/09/02 07:46:50;;;;;;;1.00;0.60;;;;;;;21.70;100.00;99698.77;109855;1280;22173;-56
2023/09/02 07:49:19;;;;;;;2.10;0.80;;;;;;;21.81;100.00;99702.55;109755;1280;99378;-57
2023/09/02 07:51:48;;;;;;;1.10;0.70;;;;;;;21.98;100.00;99709.95;109790;1279;23528;-57
2023/09/02 07:54:48;;;;;;;0.70;0.60;;;;;;;23.00;100.00;99712.26;109710;1280;100756;-57
2023/09/02 07:57:17;;;;;;;0.60;0.40;;;;;;;25.87;100.00;99708.52;109797;1280;22189;-57
2023/09/02 08:00:31;;;;;;;1.70;0.60;;;;;;;28.45;100.00;99709.00;109564;1280;99771;-57
2023/09/02 08:02:59;;;;;;;1.80;0.80;;;;;;;30.59;100.00;99711.08;109769;1279;22430;-58
2023/09/02 08:05:28;;;;;;;1.30;0.80;;;;;;;31.37;100.00;99709.09;109785;1280;22170;-58
2023/09/02 08:07:57;;;;;;;0.90;0.40;;;;;;;32.69;100.00;99711.11;109627;1280;99224;-57
2023/09/02 08:10:59;;;;;;;0.50;0.40;;;;;;;33.83;100.00;99708.63;109717;1280;22773;-58
2023/09/02 08:16:36;;;;;;;0.90;0.60;;;;;;;35.60;100.00;99719.67;110138;1272;22244;-57
2023/09/02 08:19:10;;;;;;;1.50;0.50;;;;;;;35.74;100.00;99719.77;110127;1271;101380;-58
2023/09/02 08:21:45;;;;;;;1.40;0.60;;;;;;;35.69;100.00;99724.79;110208;1271;22238;-61
2023/09/02 08:24:14;;;;;;;1.00;0.40;;;;;;;36.69;100.00;99723.65;110088;1272;99571;-59
2023/09/02 08:26:55;;;;;;;0.80;0.40;;;;;;;37.10;94.89;99727.31;110230;1272;22449;-60
2023/09/02 08:29:23;;;;;;;1.00;0.70;;;;;;;37.03;91.59;99729.96;110186;1272;22170;-59
2023/09/02 08:31:56;;;;;;;0.90;0.50;;;;;;;36.90;88.59;99734.63;110121;1272;99439;-60
2023/09/02 08:34:24;;;;;;;0.60;0.40;;;;;;;36.76;83.60;99732.07;110239;1272;22353;-56
2023/09/02 08:36:53;;;;;;;0.90;0.70;;;;;;;36.41;80.79;99739.05;110125;1272;100097;-58
2023/09/02 08:39:22;;;;;;;0.40;0.40;;;;;;;36.87;77.54;99748.13;110117;1272;22720;-56
2023/09/02 08:41:52;;;;;;;0.70;0.30;;;;;;;37.19;76.09;99748.68;110118;1272;99274;-59
2023/09/02 08:44:25;;;;;;;0.70;0.40;;;;;;;37.20;73.56;99758.12;110197;1272;22427;-58
2023/09/02 08:46:56;;;;;;;0.90;0.50;;;;;;;38.70;73.87;99755.27;110149;1272;22358;-58
2023/09/02 08:49:28;;;;;;;0.60;0.40;;;;;;;40.42;71.92;99760.66;110105;1272;100583;-58
2023/09/02 08:51:57;;;;;;;2.30;0.90;;;;;;;41.28;68.02;99755.13;110146;1272;22325;-59
2023/09/02 08:54:30;;;;;;;0.80;0.50;;;;;;;41.59;64.95;99753.49;110097;1272;99116;-61
2023/09/02 08:57:00;;;;;;;0.90;0.30;;;;;;;41.49;61.20;99757.83;110204;1272;22368;-59
2023/09/02 08:59:31;;;;;;;1.40;0.70;;;;;;;41.85;59.72;99754.64;110239;1272;22287;-59
2023/09/02 09:02:00;;;;;;;0.50;0.40;;;;;;;41.56;56.01;99759.27;110159;1271;99692;-60
2023/09/02 09:04:34;;;;;;;0.60;0.60;;;;;;;40.60;49.82;99767.44;110273;1271;22466;-59
2023/09/02 09:07:05;;;;;;;0.70;0.60;;;;;;;40.86;49.63;99766.35;110053;1272;99250;-59
2023/09/02 09:09:39;;;;;;;2.00;0.60;;;;;;;42.00;48.26;99764.48;110222;1271;22278;-62
2023/09/02 09:12:09;;;;;;;0.50;0.40;;;;;;;42.39;46.19;99764.87;110226;1271;99284;-58
2023/09/02 09:14:41;;;;;;;0.90;0.60;;;;;;;43.22;45.44;99765.36;110173;1272;22384;-58
2023/09/02 09:17:14;;;;;;;0.50;0.40;;;;;;;44.10;44.14;99773.76;110305;1271;22323;-59
2023/09/02 09:19:46;;;;;;;1.00;0.80;;;;;;;45.16;43.04;99769.83;110191;1271;98148;-59
2023/09/02 09:22:15;;;;;;;0.60;0.40;;;;;;;45.45;40.14;99773.31;110138;1273;22094;-60
2023/09/02 09:24:46;;;;;;;0.60;0.60;;;;;;;45.87;38.45;99770.02;110024;1272;99140;-61
2023/09/02 09:27:16;;;;;;;0.90;0.50;;;;;;;45.75;36.01;99771.90;110211;1272;22284;-56
2023/09/02 09:29:45;;;;;;;1.30;0.90;;;;;;;45.80;34.76;99771.64;110133;1272;99478;-58
2023/09/02 09:32:15;;;;;;;2.40;1.40;;;;;;;45.63;33.76;99774.70;110132;1271;22124;-58
2023/09/02 09:34:46;;;;;;;3.20;1.10;;;;;;;46.45;33.60;99778.02;110187;1271;22819;-58
2023/09/02 09:37:15;;;;;;;1.00;1.00;;;;;;;46.70;31.30;99780.46;110141;1271;99138;-58
2023/09/02 09:39:46;;;;;;;0.80;0.80;;;;;;;46.85;30.15;99782.38;110292;1271;22337;-58
2023/09/02 09:42:16;;;;;;;1.20;1.10;;;;;;;46.49;29.16;99785.59;110146;1272;101646;-59
2023/09/02 09:44:53;;;;;;;1.00;0.90;;;;;;;45.83;28.69;99784.66;110276;1271;22239;-59
2023/09/02 09:47:23;;;;;;;1.20;1.10;;;;;;;46.26;28.64;99784.32;110252;1261;22279;-56
2023/09/02 09:50:05;;;;;;;1.40;1.30;;;;;;;46.79;28.00;99788.14;110251;1272;99530;-55
2023/09/02 09:52:35;;;;;;;1.50;1.40;;;;;;;46.78;26.52;99790.13;110215;1271;22374;-56
2023/09/02 09:55:04;;;;;;;1.70;1.60;;;;;;;46.65;26.28;99793.48;110228;1271;100362;-56
2023/09/02 09:57:36;;;;;;;1.90;1.70;;;;;;;46.51;25.33;99799.27;110320;1270;22380;-57
2023/09/02 10:00:06;;;;;;;1.90;1.80;;;;;;;46.70;25.38;99799.61;110307;1270;98804;-56
2023/09/02 10:02:36;;;;;;;2.20;2.10;;;;;;;47.39;25.22;99801.02;110415;1267;22348;-59
2023/09/02 10:05:04;;;;;;;2.70;2.60;;;;;;;47.87;24.64;99803.10;110391;1270;22309;-58
2023/09/02 10:07:35;;;;;;;2.90;2.80;;;;;;;48.22;24.45;99803.02;110150;1272;99072;-56
2023/09/02 10:10:05;;;;;;;3.30;3.20;;;;;;;48.68;23.95;99808.58;110317;1272;21987;-56
2023/09/02 10:12:38;;;;;;;4.30;4.00;;;;;;;48.99;23.51;99809.02;110273;1270;99435;-57
2023/09/02 10:15:12;;;;;;;4.20;4.00;;;;;;;48.95;23.04;99805.90;110446;1270;22134;-58
2023/09/02 10:17:44;;;;;;;4.60;4.40;;;;;;;49.07;22.51;99810.66;110342;1269;121994;-58
2023/09/02 10:20:15;;;;;;;5.00;4.80;;;;;;;49.93;23.17;99810.61;110439;1270;22383;-56
2023/09/02 10:22:48;;;;;;;3.40;3.20;;;;;;;50.03;21.51;99810.70;110401;1270;22885;-56
2023/09/02 10:25:24;;;;;;;2.90;2.80;;;;;;;46.44;20.49;99813.84;110125;1273;99145;-55
2023/09/02 10:28:17;;;;;;;2.70;2.60;;;;;;;46.81;21.10;99816.65;110358;1263;22150;-54
2023/09/02 10:30:49;;;;;;;2.90;2.80;;;;;;;48.08;21.99;99820.15;110185;1270;99126;-54
2023/09/02 10:33:29;;;;;;;3.10;3.00;;;;;;;49.74;21.71;99820.34;110399;1270;23027;-57
2023/09/02 10:36:01;;;;;;;4.00;3.80;;;;;;;49.54;20.22;99817.69;110299;1269;99943;-54
2023/09/02 10:38:36;;;;;;;3.20;3.10;;;;;;;48.66;20.19;99827.43;110215;1273;23136;-55
2023/09/02 10:41:12;;;;;;;3.10;3.00;;;;;;;47.28;20.25;99825.25;110352;1270;22309;-56
2023/09/02 10:43:42;;;;;;;3.50;3.40;;;;;;;48.12;21.06;99826.40;110259;1270;99712;-56
2023/09/02 10:46:11;;;;;;;4.30;4.00;;;;;;;49.07;20.84;99829.03;110389;1270;22290;-56
2023/09/02 10:48:45;;;;;;;4.40;4.20;;;;;;;49.06;21.06;99829.89;110268;1270;99105;-57
2023/09/02 10:51:16;;;;;;;3.30;3.10;;;;;;;48.69;19.84;99828.04;110119;1272;22394;-57
2023/09/02 10:53:47;;;;;;;3.20;3.00;;;;;;;46.34;20.34;99827.20;110139;1270;99579;-58
2023/09/02 10:56:33;;;;;;;2.60;2.50;;;;;;;47.27;21.15;99825.23;110321;1270;23504;-57
2023/09/02 10:59:06;;;;;;;1.70;1.60;;;;;;;47.42;21.10;99826.43;110110;1272;22380;-57
2023/09/02 11:01:43;;;;;;;2.10;2.00;;;;;;;47.64;21.49;99828.41;110156;1273;99133;-57
2023/09/02 11:04:23;;;;;;;;;;;;;;;;;;;;;
2023/09/02 11:07:20;;;;;;;3.10;2.90;;;;;;;49.93;20.69;99843.48;110076;1272;99089;-57
2023/09/02 11:09:55;;;;;;;3.80;3.60;;;;;;;50.10;20.30;99842.77;110216;1272;22249;-58
2023/09/02 11:12:25;;;;;;;4.60;4.30;;;;;;;50.28;20.23;99845.29;110150;1272;99134;-58
2023/09/02 11:15:09;;;;;;;6.10;5.80;;;;;;;51.57;20.30;99845.67;110239;1274;23357;-55
2023/09/02 11:17:41;;;;;;;5.40;5.20;;;;;;;51.29;18.96;99845.59;110227;1272;22241;-55
2023/09/02 11:20:13;;;;;;;2.70;2.60;;;;;;;47.88;18.44;99850.73;110229;1272;22175;-55
2023/09/02 11:23:08;;;;;;;1.50;1.40;;;;;;;44.43;18.79;99853.96;110141;1273;22166;-55
2023/09/02 11:25:43;;;;;;;0.70;0.70;;;;;;;41.05;19.05;99857.36;110158;1274;99647;-60
2023/09/02 11:28:17;;;;;;;0.40;0.30;;;;;;;38.52;19.57;99854.11;110273;1275;22286;-60
2023/09/02 11:31:04;;;;;;;0.50;0.40;;;;;;;36.33;20.39;99858.40;110185;1268;99727;-60
2023/09/02 11:33:34;;;;;;;0.20;0.20;;;;;;;34.50;21.38;99857.00;110141;1275;22332;-60
2023/09/02 11:36:12;;;;;;;0.90;0.40;;;;;;;33.93;22.30;99862.05;110183;1274;100182;-59
2023/09/02 11:38:41;;;;;;;2.50;0.30;;;;;;;35.88;22.70;99866.19;110235;1272;22119;-59
2023/09/02 11:41:20;;;;;;;0.70;0.30;;;;;;;35.67;22.76;99864.73;110225;1272;22190;-59
2023/09/02 11:43:53;;;;;;;0.50;0.40;;;;;;;34.11;23.39;99859.51;110148;1272;99270;-59
2023/09/02 11:46:21;;;;;;;1.30;0.40;;;;;;;32.61;23.77;99863.16;110153;1272;22143;-59